TimeMST,TemperatureF,Dew PointF,Humidity,Sea Level PressureIn,VisibilityMPH,Wind Direction,Wind SpeedMPH,Gust SpeedMPH,PrecipitationIn,Events,Conditions,WindDirDegrees,DateUTC
12:53 AM,37.0,30.0,76,29.66,10.0,South,15.0,-,N/A,,Scattered Clouds,190,2013-01-28 07:53:00
1:53 AM,37.0,28.0,70,29.66,10.0,SSW,12.7,19.6,N/A,,Clear,200,2013-01-28 08:53:00
2:53 AM,37.0,26.1,65,29.65,10.0,SSW,11.5,17.3,N/A,,Clear,210,2013-01-28 09:53:00
3:53 AM,30.9,26.1,82,29.69,10.0,NNW,5.8,-,N/A,,Scattered Clouds,330,2013-01-28 10:53:00
4:53 AM,30.9,25.0,79,29.67,10.0,Calm,Calm,-,N/A,,Mostly Cloudy,0,2013-01-28 11:53:00
5:53 AM,30.0,27.0,88,29.65,10.0,West,3.5,-,N/A,,Overcast,260,2013-01-28 12:53:00
6:15 AM,30.2,28.4,93,29.68,2.5,Calm,Calm,-,0.00,Snow,Light Snow,0,2013-01-28 13:15:00
6:20 AM,30.2,28.4,93,29.68,1.0,WSW,3.5,-,0.00,Snow,Light Snow,250,2013-01-28 13:20:00
6:24 AM,30.2,28.4,93,29.68,0.8,WSW,3.5,-,0.01,Snow,Light Snow,250,2013-01-28 13:24:00
6:36 AM,30.2,28.4,93,29.69,1.2,SSW,5.8,-,0.01,Snow,Light Snow,210,2013-01-28 13:36:00
6:40 AM,30.2,28.4,93,29.69,2.0,SW,8.1,-,0.01,Snow,Light Snow,220,2013-01-28 13:40:00
6:43 AM,30.2,28.4,93,29.69,3.0,SW,6.9,-,0.01,Snow,Light Snow,230,2013-01-28 13:43:00
6:51 AM,30.2,28.4,93,29.69,4.0,WSW,6.9,-,0.01,Snow,Light Snow,240,2013-01-28 13:51:00
6:53 AM,30.0,28.0,92,29.71,2.5,WSW,6.9,-,0.01,Snow,Light Snow,240,2013-01-28 13:53:00
7:15 AM,28.4,28.4,100,29.69,1.2,West,3.5,-,0.01,Snow,Light Snow,270,2013-01-28 14:15:00
7:20 AM,28.4,28.4,100,29.69,1.0,West,3.5,-,0.01,Snow,Light Snow,260,2013-01-28 14:20:00
7:27 AM,28.4,28.4,100,29.69,0.8,Calm,Calm,-,0.02,Snow,Light Snow,0,2013-01-28 14:27:00
7:53 AM,28.9,28.0,96,29.70,1.0,Calm,Calm,-,0.04,Snow,Light Snow,0,2013-01-28 14:53:00
7:58 AM,28.4,28.4,100,29.69,0.8,Calm,Calm,-,0.00,Snow,Light Snow,0,2013-01-28 14:58:00
8:22 AM,28.4,28.4,100,29.69,0.2,WNW,3.5,-,0.02,Fog-Snow,Snow,290,2013-01-28 15:22:00
8:30 AM,28.4,26.6,93,29.69,0.5,NNW,10.4,-,0.03,Fog-Snow,Snow,340,2013-01-28 15:30:00
8:53 AM,27.0,24.1,89,29.73,0.2,North,9.2,-,0.05,Fog-Snow,Snow,10,2013-01-28 15:53:00
9:53 AM,24.1,19.9,84,29.79,0.5,SE,3.5,-,0.06,Fog-Snow,Snow,130,2013-01-28 16:53:00
10:00 AM,24.8,21.2,86,29.76,0.8,Calm,Calm,-,0.00,Snow,Light Snow,0,2013-01-28 17:00:00
10:09 AM,24.8,21.2,86,29.76,0.2,Calm,Calm,-,0.01,Fog-Snow,Heavy Snow,0,2013-01-28 17:09:00
10:39 AM,24.8,21.2,86,29.76,0.5,ENE,4.6,-,0.02,Fog-Snow,Snow,60,2013-01-28 17:39:00
10:53 AM,25.0,18.0,75,29.79,1.0,NE,8.1,-,0.02,Snow,Light Snow,50,2013-01-28 17:53:00
11:21 AM,24.8,17.6,74,29.78,2.5,NE,5.8,-,0.00,Snow,Light Snow,40,2013-01-28 18:21:00
11:33 AM,24.8,17.6,74,29.77,1.2,NNE,6.9,-,0.00,Snow,Light Snow,30,2013-01-28 18:33:00
11:49 AM,24.8,17.6,74,29.76,1.0,NE,8.1,-,0.00,Snow,Light Snow,40,2013-01-28 18:49:00
11:53 AM,24.1,18.0,77,29.78,0.8,NE,9.2,-,0.00,Snow,Light Snow,40,2013-01-28 18:53:00
12:12 PM,24.8,17.6,74,29.76,1.2,NNE,5.8,-,0.01,Snow,Light Snow,20,2013-01-28 19:12:00
12:20 PM,24.8,17.6,74,29.75,1.8,NE,4.6,-,0.01,Snow,Light Snow,50,2013-01-28 19:20:00
12:36 PM,24.8,17.6,74,29.76,3.0,North,5.8,-,0.01,Snow,Light Snow,10,2013-01-28 19:36:00
12:47 PM,24.8,17.6,74,29.75,1.8,North,4.6,-,0.01,Snow,Light Snow,350,2013-01-28 19:47:00
12:53 PM,24.1,18.0,77,29.78,1.0,North,9.2,-,0.01,Snow,Light Snow,360,2013-01-28 19:53:00
1:00 PM,23.0,17.6,80,29.75,0.8,North,5.8,-,0.00,Snow,Light Snow,360,2013-01-28 20:00:00
1:07 PM,23.0,17.6,80,29.76,0.8,Calm,Calm,-,0.00,Snow,Light Snow,0,2013-01-28 20:07:00
1:32 PM,23.0,17.6,80,29.74,1.0,NE,5.8,-,0.01,Snow,Light Snow,40,2013-01-28 20:32:00
1:51 PM,24.8,17.6,74,29.74,1.5,NE,8.1,-,0.01,Snow,Light Snow,40,2013-01-28 20:51:00
1:53 PM,24.1,17.1,75,29.76,1.5,NE,4.6,-,0.01,Snow,Light Snow,50,2013-01-28 20:53:00
2:03 PM,24.8,17.6,74,29.73,3.0,NE,9.2,-,0.00,Snow,Light Snow,40,2013-01-28 21:03:00
2:27 PM,24.8,15.8,69,29.74,8.0,NNE,9.2,-,0.00,Snow,Light Snow,30,2013-01-28 21:27:00
2:53 PM,24.1,14.0,65,29.77,10.0,North,10.4,-,0.00,,Overcast,10,2013-01-28 21:53:00
3:53 PM,24.1,15.1,69,29.80,10.0,North,8.1,-,0.00,Snow,Light Snow,10,2013-01-28 22:53:00
4:02 PM,23.0,15.8,74,29.76,3.0,North,11.5,-,0.00,Snow,Light Snow,10,2013-01-28 23:02:00
4:10 PM,23.0,15.8,74,29.77,2.5,NNE,10.4,-,0.00,Snow,Light Snow,20,2013-01-28 23:10:00
4:37 PM,21.2,15.8,80,29.77,9.0,NNE,9.2,-,0.00,,Overcast,30,2013-01-28 23:37:00
4:53 PM,21.0,14.0,74,29.84,5.0,NNE,8.1,-,0.00,Snow,Light Snow,30,2013-01-28 23:53:00
5:08 PM,21.2,14.0,74,29.77,5.0,NNE,3.5,-,0.00,Snow,Light Snow,20,2013-01-29 00:08:00
5:53 PM,19.9,12.0,71,29.86,10.0,NE,5.8,-,0.00,,Overcast,50,2013-01-29 00:53:00
6:53 PM,19.9,12.0,71,29.88,10.0,Calm,Calm,-,N/A,,Overcast,0,2013-01-29 01:53:00
7:53 PM,19.0,12.0,74,29.90,10.0,WNW,3.5,-,N/A,,Overcast,300,2013-01-29 02:53:00
8:53 PM,19.0,9.0,65,29.91,10.0,Calm,Calm,-,N/A,,Overcast,0,2013-01-29 03:53:00
9:53 PM,17.1,12.0,81,29.94,2.5,Calm,Calm,-,0.00,Snow,Light Snow,0,2013-01-29 04:53:00
10:37 PM,17.6,12.2,79,29.82,4.0,Calm,Calm,-,0.00,Snow,Light Snow,0,2013-01-29 05:37:00
10:44 PM,17.6,12.2,79,29.82,5.0,Calm,Calm,-,0.00,Snow,Light Snow,0,2013-01-29 05:44:00
10:53 PM,17.1,12.0,81,29.94,8.0,Calm,Calm,-,0.00,Snow,Light Snow,0,2013-01-29 05:53:00
11:53 PM,16.0,12.0,84,29.94,10.0,Calm,Calm,-,0.00,,Overcast,0,2013-01-29 06:53:00